createdAt,value
2022-09-07T00:00:36.520Z,100347.16
2022-09-07T00:03:03.717Z,100351.47
2022-09-07T00:09:10.750Z,100505.06
2022-09-07T00:11:37.183Z,100524.53
2022-09-07T00:14:03.742Z,100570.44
2022-09-07T00:16:31.075Z,100574.81
2022-09-07T00:19:00.131Z,100589.16
2022-09-07T00:21:26.987Z,100595.91
2022-09-07T00:23:53.589Z,100598.66
2022-09-07T00:26:23.479Z,100586.50
2022-09-07T00:28:50.350Z,100597.25
2022-09-07T00:31:22.315Z,100602.66
2022-09-07T00:33:50.171Z,100601.09
2022-09-07T00:36:18.221Z,100598.84
2022-09-07T00:38:44.852Z,100608.94
2022-09-07T00:41:11.701Z,100618.31
2022-09-07T00:43:41.164Z,100623.19
2022-09-07T00:46:15.721Z,100625.06
2022-09-07T00:49:03.930Z,100618.66
2022-09-07T00:51:40.729Z,100608.88
2022-09-07T00:54:13.231Z,100593.25
2022-09-07T00:56:42.195Z,100594.59
2022-09-07T00:59:09.587Z,100597.03
2022-09-07T01:01:36.287Z,100595.38
2022-09-07T01:04:03.298Z,100614.75
2022-09-07T01:06:35.460Z,100618.16
2022-09-07T01:09:31.203Z,100619.34
2022-09-07T01:11:59.146Z,100616.72
2022-09-07T01:14:34.679Z,100614.53
2022-09-07T01:17:35.153Z,100612.72
2022-09-07T01:20:31.545Z,100603.56
2022-09-07T01:23:09.683Z,100612.25
2022-09-07T01:25:55.480Z,100610.09
2022-09-07T01:28:29.358Z,100607.38
2022-09-07T01:31:05.215Z,100607.25
2022-09-07T01:33:47.369Z,100616.56
2022-09-07T01:36:33.423Z,100620.47
2022-09-07T01:39:02.830Z,100618.13
2022-09-07T01:41:45.835Z,100614.28
2022-09-07T01:44:17.150Z,100608.19
2022-09-07T01:46:53.957Z,100602.72
2022-09-07T01:50:05.465Z,100591.41
2022-09-07T01:52:40.270Z,100583.19
2022-09-07T01:55:13.897Z,100585.59
2022-09-07T01:57:45.158Z,100586.75
2022-09-07T02:00:16.733Z,100596.72
2022-09-07T02:02:48.834Z,100575.06
2022-09-07T02:05:22.136Z,100566.88
2022-09-07T02:07:53.872Z,100564.97
2022-09-07T02:10:22.308Z,100564.63
2022-09-07T02:13:13.490Z,100544.47
2022-09-07T02:15:54.795Z,100545.19
2022-09-07T02:18:21.994Z,100534.78
2022-09-07T02:20:52.317Z,100522.53
2022-09-07T02:23:21.598Z,100520.19
2022-09-07T02:25:53.546Z,100505.69
2022-09-07T02:28:23.748Z,100503.75
2022-09-07T02:30:50.330Z,100497.63
2022-09-07T02:33:16.880Z,100492.63
2022-09-07T02:35:43.336Z,100489.69
2022-09-07T02:38:10.441Z,100464.59
2022-09-07T02:40:36.895Z,100465.34
2022-09-07T02:43:06.396Z,100449.34
2022-09-07T02:46:08.224Z,100437.16
2022-09-07T02:48:48.458Z,100439.19
2022-09-07T02:51:41.101Z,100453.13
2022-09-07T02:54:32.659Z,100456.34
2022-09-07T02:57:11.643Z,100447.94
2022-09-07T03:00:07.313Z,100448.00
2022-09-07T03:03:01.145Z,100451.13
2022-09-07T03:05:45.326Z,100447.44
2022-09-07T03:08:25.357Z,100446.16
2022-09-07T03:10:52.753Z,100442.84
2022-09-07T03:13:24.262Z,100450.44
2022-09-07T03:15:55.569Z,100446.09
2022-09-07T03:18:26.194Z,100453.38
2022-09-07T03:24:40.852Z,100456.72
2022-09-07T03:27:07.349Z,100446.94
2022-09-07T03:29:33.813Z,100433.97
2022-09-07T03:32:00.303Z,100436.69
2022-09-07T03:34:26.782Z,100457.91
2022-09-07T03:36:53.266Z,100448.97
2022-09-07T03:39:23.739Z,100460.97
2022-09-07T03:41:50.629Z,100457.63
2022-09-07T03:44:17.121Z,100457.75
2022-09-07T03:46:44.282Z,100464.81
2022-09-07T03:49:11.254Z,100468.66
2022-09-07T03:51:38.944Z,100468.53
2022-09-07T03:54:05.504Z,100466.41
2022-09-07T03:56:32.235Z,100467.16
2022-09-07T03:58:58.703Z,100466.72
2022-09-07T04:01:26.121Z,100464.28
2022-09-07T04:03:53.471Z,100459.47
2022-09-07T04:06:19.979Z,100461.06
2022-09-07T04:08:46.659Z,100466.88
2022-09-07T04:11:15.344Z,100469.19
2022-09-07T04:13:41.882Z,100464.53
2022-09-07T04:16:17.092Z,100462.47
2022-09-07T04:18:44.077Z,100457.84
2022-09-07T04:21:10.700Z,100457.44
2022-09-07T04:23:41.405Z,100454.00
2022-09-07T04:26:16.883Z,100445.41
2022-09-07T04:28:43.862Z,100456.41
2022-09-07T04:31:10.511Z,100456.53
2022-09-07T04:33:37.190Z,100456.78
2022-09-07T04:36:04.151Z,100454.13
2022-09-07T04:38:30.943Z,100458.59
2022-09-07T04:41:00.618Z,100457.19
2022-09-07T04:43:28.437Z,100452.72
2022-09-07T04:45:55.127Z,100453.75
2022-09-07T04:48:21.847Z,100457.63
2022-09-07T04:50:48.285Z,100458.00
2022-09-07T04:53:14.739Z,100458.63
2022-09-07T04:55:41.179Z,100463.31
2022-09-07T04:58:07.636Z,100453.81
2022-09-07T05:00:34.195Z,100460.50
2022-09-07T05:03:00.638Z,100460.25
2022-09-07T05:05:27.085Z,100467.84
2022-09-07T05:07:53.545Z,100462.69
2022-09-07T05:10:19.975Z,100469.72
2022-09-07T05:12:46.518Z,100464.28
2022-09-07T05:15:12.972Z,100472.03
2022-09-07T05:17:39.409Z,100483.81
2022-09-07T05:20:07.077Z,100492.13
2022-09-07T05:22:35.545Z,100485.50
2022-09-07T05:25:02.281Z,100487.38
2022-09-07T05:27:28.768Z,100485.63
2022-09-07T05:32:24.935Z,100488.31
2022-09-07T05:34:53.042Z,100498.66
2022-09-07T05:37:19.811Z,100489.47
2022-09-07T05:39:46.331Z,100493.44
2022-09-07T05:42:12.798Z,100486.03
2022-09-07T05:47:08.943Z,100483.19
2022-09-07T05:49:35.425Z,100489.69
2022-09-07T05:52:02.167Z,100488.06
2022-09-07T05:54:28.603Z,100489.28
2022-09-07T05:56:55.021Z,100488.19
2022-09-07T05:59:21.486Z,100488.53
2022-09-07T06:01:47.990Z,100482.41
2022-09-07T06:04:14.498Z,100475.06
2022-09-07T06:06:40.962Z,100490.97
2022-09-07T06:09:07.816Z,100479.91
2022-09-07T06:11:34.455Z,100485.53
2022-09-07T06:14:00.907Z,100489.69
2022-09-07T06:16:27.398Z,100489.50
2022-09-07T06:18:54.477Z,100494.91
2022-09-07T06:21:23.372Z,100495.47
2022-09-07T06:23:50.489Z,100496.13
2022-09-07T06:26:18.215Z,100500.56
2022-09-07T06:28:49.140Z,100499.34
2022-09-07T06:31:18.238Z,100501.75
2022-09-07T06:33:45.133Z,100506.22
2022-09-07T06:36:13.470Z,100513.47
2022-09-07T06:38:40.418Z,100517.94
2022-09-07T06:44:00.677Z,100507.78
2022-09-07T06:49:14.140Z,100500.19
2022-09-07T06:51:40.569Z,100500.19
2022-09-07T06:56:53.517Z,100506.66
2022-09-07T06:59:20.195Z,100498.50
2022-09-07T07:01:46.763Z,100497.03
2022-09-07T07:04:14.147Z,100504.56
2022-09-07T07:06:40.582Z,100510.28
2022-09-07T07:09:08.791Z,100518.56
2022-09-07T07:11:37.139Z,100526.56
2022-09-07T07:14:03.872Z,100523.47
2022-09-07T07:16:30.628Z,100527.13
2022-09-07T07:18:57.385Z,100525.84
2022-09-07T07:21:23.887Z,100525.94
2022-09-07T07:23:51.829Z,100525.72
2022-09-07T07:26:23.882Z,100523.59
2022-09-07T07:29:06.073Z,100522.09
2022-09-07T07:31:36.224Z,100522.66
2022-09-07T07:34:03.691Z,100516.00
2022-09-07T07:36:30.876Z,100509.06
2022-09-07T07:44:17.849Z,100514.84
2022-09-07T07:46:48.109Z,100506.13
2022-09-07T07:49:14.601Z,100505.78
2022-09-07T07:54:27.398Z,100497.38
2022-09-07T07:56:53.797Z,100502.25
2022-09-07T07:59:20.409Z,100501.34
2022-09-07T08:01:46.890Z,100502.84
2022-09-07T08:04:13.523Z,100505.28
2022-09-07T08:06:42.545Z,100516.31
2022-09-07T08:09:08.947Z,100516.09
2022-09-07T08:11:35.439Z,100518.91
2022-09-07T08:14:05.857Z,100520.50
2022-09-07T08:16:33.089Z,100520.78
2022-09-07T08:18:59.561Z,100532.75
2022-09-07T08:21:26.056Z,100541.00
2022-09-07T08:23:52.511Z,100540.38
2022-09-07T08:26:18.994Z,100539.19
2022-09-07T08:28:46.221Z,100543.75
2022-09-07T08:31:16.051Z,100552.53
2022-09-07T08:33:43.011Z,100548.50
2022-09-07T08:36:19.812Z,100541.03
2022-09-07T08:38:46.956Z,100540.34
2022-09-07T08:41:26.968Z,100549.94
2022-09-07T08:44:00.667Z,100558.97
2022-09-07T08:46:27.891Z,100560.22
2022-09-07T08:48:55.328Z,100558.69
2022-09-07T08:51:33.877Z,100553.66
2022-09-07T08:54:00.934Z,100556.28
2022-09-07T08:56:33.912Z,100561.44
2022-09-07T08:59:03.319Z,100556.69
2022-09-07T09:01:41.146Z,100562.41
2022-09-07T09:04:34.875Z,100561.72
2022-09-07T09:07:50.957Z,100549.34
2022-09-07T09:10:29.009Z,100551.56
2022-09-07T09:13:04.481Z,100550.72
2022-09-07T09:15:42.321Z,100557.50
2022-09-07T09:18:35.463Z,100553.91
2022-09-07T09:21:02.174Z,100545.94
2022-09-07T09:23:34.835Z,100551.22
2022-09-07T09:26:12.415Z,100545.09
2022-09-07T09:28:39.774Z,100535.84
2022-09-07T09:31:06.536Z,100536.09
2022-09-07T09:33:32.955Z,100528.59
2022-09-07T09:36:00.850Z,100521.38
2022-09-07T09:38:35.428Z,100522.75
2022-09-07T09:41:07.924Z,100531.22
2022-09-07T09:43:58.080Z,100515.41
2022-09-07T09:46:36.010Z,100516.75
2022-09-07T09:49:22.519Z,100511.97
2022-09-07T09:54:43.701Z,100518.97
2022-09-07T09:57:16.175Z,100514.53
2022-09-07T10:00:01.480Z,100515.66
2022-09-07T10:05:33.876Z,100524.19
2022-09-07T10:08:00.404Z,100526.31
2022-09-07T10:10:27.976Z,100527.00
2022-09-07T10:12:55.144Z,100531.81
2022-09-07T10:15:40.671Z,100515.72
2022-09-07T10:18:18.508Z,100513.66
2022-09-07T10:20:44.962Z,100519.09
2022-09-07T10:23:21.133Z,100509.47
2022-09-07T10:25:47.564Z,100506.53
2022-09-07T10:28:21.411Z,100520.97
2022-09-07T10:31:14.664Z,100522.00
2022-09-07T10:37:08.941Z,100518.97
2022-09-07T10:39:42.339Z,100524.50
2022-09-07T10:42:26.164Z,100518.53
2022-09-07T10:45:40.446Z,100518.22
2022-09-07T10:48:18.345Z,100529.13
2022-09-07T10:50:48.714Z,100520.47
2022-09-07T10:57:29.369Z,100528.56
2022-09-07T11:00:14.063Z,100527.53
2022-09-07T11:06:03.001Z,100531.66
2022-09-07T11:14:28.275Z,100525.94
2022-09-07T11:17:01.446Z,100520.56
2022-09-07T11:19:54.114Z,100535.78
2022-09-07T11:22:34.051Z,100528.50
2022-09-07T11:25:30.828Z,100532.09
2022-09-07T11:28:12.487Z,100533.34
2022-09-07T11:30:52.546Z,100539.31
2022-09-07T11:33:21.994Z,100536.16
2022-09-07T11:35:55.627Z,100545.22
2022-09-07T11:38:35.120Z,100541.34
2022-09-07T11:41:22.732Z,100535.88
2022-09-07T11:44:13.398Z,100538.94
2022-09-07T11:46:51.557Z,100524.03
2022-09-07T11:49:25.948Z,100517.91
2022-09-07T11:51:56.276Z,100515.63
2022-09-07T11:54:53.559Z,100498.81
2022-09-07T11:57:41.837Z,100504.22
2022-09-07T12:00:14.162Z,100509.69
2022-09-07T12:02:59.861Z,100498.97
2022-09-07T12:05:49.372Z,100494.06
2022-09-07T12:08:15.689Z,100489.56
2022-09-07T12:11:03.082Z,100480.59
2022-09-07T12:13:57.513Z,100494.22
2022-09-07T12:16:56.541Z,100487.97
2022-09-07T12:19:24.722Z,100483.03
2022-09-07T12:21:51.018Z,100483.69
2022-09-07T12:24:33.883Z,100480.19
2022-09-07T12:27:02.281Z,100479.47
2022-09-07T12:29:29.916Z,100473.50
2022-09-07T12:31:59.809Z,100474.09
2022-09-07T12:34:33.492Z,100477.88
2022-09-07T12:37:35.971Z,100486.25
2022-09-07T12:40:30.458Z,100483.69
2022-09-07T12:43:32.188Z,100474.63
2022-09-07T12:46:00.671Z,100476.91
2022-09-07T12:48:30.165Z,100474.31
2022-09-07T12:50:59.942Z,100469.09
2022-09-07T12:54:00.139Z,100465.47
2022-09-07T12:56:38.207Z,100466.56
2022-09-07T12:59:33.665Z,100456.03
2022-09-07T13:02:18.720Z,100458.63
2022-09-07T13:05:06.124Z,100448.94
2022-09-07T13:07:41.762Z,100455.09
2022-09-07T13:10:26.499Z,100463.97
2022-09-07T13:12:54.218Z,100463.91
2022-09-07T13:15:52.276Z,100456.53
2022-09-07T13:18:28.239Z,100460.44
2022-09-07T13:21:06.783Z,100451.50
2022-09-07T13:23:40.280Z,100455.06
2022-09-07T13:26:09.659Z,100455.09
2022-09-07T13:28:50.518Z,100442.53
2022-09-07T13:31:25.007Z,100446.13
2022-09-07T13:33:52.767Z,100435.22
2022-09-07T13:36:21.951Z,100430.09
2022-09-07T13:38:49.957Z,100438.25
2022-09-07T13:41:21.277Z,100440.06
2022-09-07T13:43:48.889Z,100434.75
2022-09-07T13:46:41.232Z,100433.44
2022-09-07T13:49:23.565Z,100432.22
2022-09-07T13:52:13.411Z,100417.53
2022-09-07T13:54:58.559Z,100408.41
2022-09-07T13:57:28.634Z,100410.03
2022-09-07T13:59:55.744Z,100410.78
2022-09-07T14:02:24.997Z,100403.78
2022-09-07T14:04:52.297Z,100393.91
2022-09-07T14:07:24.369Z,100393.06
2022-09-07T14:10:14.583Z,100395.22
2022-09-07T14:13:05.326Z,100399.34
2022-09-07T14:15:39.318Z,100398.84
2022-09-07T14:18:13.982Z,100402.69
2022-09-07T14:20:44.206Z,100400.28
2022-09-07T14:23:31.700Z,100410.81
2022-09-07T14:26:18.299Z,100408.63
2022-09-07T14:28:46.678Z,100402.69
2022-09-07T14:31:15.838Z,100404.06
2022-09-07T14:34:00.685Z,100397.16
2022-09-07T14:36:45.817Z,100393.22
2022-09-07T14:39:15.797Z,100394.88
2022-09-07T14:45:29.039Z,100405.81
2022-09-07T14:47:56.291Z,100412.53
2022-09-07T14:51:13.110Z,100417.00
2022-09-07T14:53:47.257Z,100413.41
2022-09-07T14:56:19.509Z,100402.72
2022-09-07T14:58:46.143Z,100400.03
2022-09-07T15:04:02.220Z,100400.00
2022-09-07T15:07:02.261Z,100405.09
2022-09-07T15:09:35.538Z,100394.47
2022-09-07T15:12:04.550Z,100398.09
2022-09-07T15:14:31.155Z,100402.50
2022-09-07T15:19:50.406Z,100398.72
2022-09-07T15:22:18.382Z,100394.38
2022-09-07T15:34:09.643Z,100386.66
2022-09-07T15:36:37.140Z,100382.22
2022-09-07T15:39:04.338Z,100378.69
2022-09-07T15:41:30.952Z,100375.16
2022-09-07T15:43:57.939Z,100379.66
2022-09-07T15:46:25.347Z,100380.47
2022-09-07T15:48:54.064Z,100384.66
2022-09-07T15:52:07.911Z,100391.66
2022-09-07T15:54:36.825Z,100380.03
2022-09-07T15:59:52.358Z,100386.66
2022-09-07T16:05:30.785Z,100377.09
2022-09-07T16:10:44.354Z,100376.91
2022-09-07T16:13:12.110Z,100375.41
2022-09-07T16:15:45.784Z,100373.25
2022-09-07T16:18:16.422Z,100356.78
2022-09-07T16:20:43.374Z,100346.19
2022-09-07T16:23:13.712Z,100338.47
2022-09-07T16:25:42.439Z,100345.91
2022-09-07T16:28:09.536Z,100347.06
2022-09-07T16:30:39.409Z,100345.97
2022-09-07T16:33:06.108Z,100333.22
2022-09-07T16:35:32.890Z,100329.66
2022-09-07T16:40:46.421Z,100338.88
2022-09-07T16:43:12.870Z,100326.91
2022-09-07T16:48:25.632Z,100317.22
2022-09-07T16:51:00.415Z,100319.78
2022-09-07T16:53:29.031Z,100324.06
2022-09-07T16:56:12.416Z,100323.47
2022-09-07T16:58:40.854Z,100328.56
2022-09-07T17:01:09.127Z,100335.75
2022-09-07T17:03:36.668Z,100337.84
2022-09-07T17:06:04.565Z,100339.03
2022-09-07T17:08:31.389Z,100332.00
2022-09-07T17:11:02.511Z,100339.88
2022-09-07T17:13:30.782Z,100338.13
2022-09-07T17:16:08.969Z,100337.91
2022-09-07T17:21:22.696Z,100337.00
2022-09-07T17:23:54.892Z,100331.63
2022-09-07T17:26:22.494Z,100332.50
2022-09-07T17:28:50.032Z,100329.78
2022-09-07T17:34:07.254Z,100333.22
2022-09-07T17:36:34.596Z,100337.25
2022-09-07T17:39:18.195Z,100341.50
2022-09-07T17:41:46.767Z,100346.47
2022-09-07T17:44:34.699Z,100348.16
2022-09-07T17:50:44.523Z,100350.22
2022-09-07T17:56:58.462Z,100337.56
2022-09-07T18:03:38.240Z,100343.16
2022-09-07T18:06:53.830Z,100344.72
2022-09-07T18:09:20.315Z,100347.16
2022-09-07T18:11:48.682Z,100352.97
2022-09-07T18:14:15.448Z,100356.25
2022-09-07T18:16:43.530Z,100359.53
2022-09-07T18:19:11.187Z,100369.00
2022-09-07T18:21:38.409Z,100363.97
2022-09-07T18:24:07.932Z,100367.16
2022-09-07T18:26:36.377Z,100368.19
2022-09-07T18:29:04.769Z,100359.59
2022-09-07T18:31:33.390Z,100357.69
2022-09-07T18:34:01.665Z,100359.63
2022-09-07T18:36:29.101Z,100359.63
2022-09-07T18:38:55.657Z,100356.88
2022-09-07T18:41:22.051Z,100356.44
2022-09-07T18:43:48.696Z,100356.84
2022-09-07T18:46:19.350Z,100353.69
2022-09-07T18:48:45.928Z,100356.75
2022-09-07T18:51:12.905Z,100351.47
2022-09-07T18:53:39.843Z,100356.31
2022-09-07T18:56:17.802Z,100352.69
2022-09-07T18:58:45.546Z,100343.97
2022-09-07T19:01:14.445Z,100344.25
2022-09-07T19:03:41.584Z,100339.22
2022-09-07T19:06:13.007Z,100339.22
2022-09-07T19:08:40.978Z,100338.03
2022-09-07T19:11:17.802Z,100338.72
2022-09-07T19:13:44.857Z,100340.09
2022-09-07T19:16:13.950Z,100337.19
2022-09-07T19:19:40.283Z,100345.06
2022-09-07T19:22:06.694Z,100339.31
2022-09-07T19:24:35.411Z,100338.94
2022-09-07T19:27:01.988Z,100329.25
2022-09-07T19:29:29.212Z,100334.47
2022-09-07T19:32:05.533Z,100335.66
2022-09-07T19:34:40.045Z,100326.56
2022-09-07T19:37:48.365Z,100328.53
2022-09-07T19:40:19.112Z,100328.31
2022-09-07T19:42:45.944Z,100326.97
2022-09-07T19:45:12.438Z,100317.44
2022-09-07T19:47:38.848Z,100318.16
2022-09-07T19:50:06.074Z,100322.22
2022-09-07T19:52:32.809Z,100330.22
2022-09-07T19:55:18.873Z,100332.88
2022-09-07T19:57:47.352Z,100331.31
2022-09-07T20:00:14.182Z,100334.97
2022-09-07T20:02:40.687Z,100333.97
2022-09-07T20:05:07.774Z,100331.69
2022-09-07T20:07:34.163Z,100336.00
2022-09-07T20:10:00.799Z,100326.78
2022-09-07T20:12:27.248Z,100328.63
2022-09-07T20:14:53.813Z,100333.28
2022-09-07T20:17:20.426Z,100326.09
2022-09-07T20:19:46.813Z,100323.81
2022-09-07T20:22:13.249Z,100315.28
2022-09-07T20:24:39.927Z,100324.69
2022-09-07T20:27:06.333Z,100319.16
2022-09-07T20:29:32.932Z,100322.25
2022-09-07T20:32:00.370Z,100317.75
2022-09-07T20:34:28.040Z,100317.81
2022-09-07T20:36:54.841Z,100322.16
2022-09-07T20:39:21.794Z,100313.50
2022-09-07T20:41:48.235Z,100306.19
2022-09-07T20:44:14.629Z,100312.94
2022-09-07T20:46:41.181Z,100306.78
2022-09-07T20:49:07.919Z,100309.56
2022-09-07T20:51:34.541Z,100304.47
2022-09-07T20:54:01.204Z,100303.56
2022-09-07T20:56:29.022Z,100297.47
2022-09-07T20:58:57.645Z,100300.75
2022-09-07T21:01:24.642Z,100295.41
2022-09-07T21:03:53.957Z,100289.78
2022-09-07T21:06:21.827Z,100291.00
2022-09-07T21:08:49.523Z,100295.41
2022-09-07T21:11:28.033Z,100293.78
2022-09-07T21:13:59.765Z,100291.94
2022-09-07T21:16:27.044Z,100287.84
2022-09-07T21:18:55.730Z,100297.16
2022-09-07T21:21:23.313Z,100307.75
2022-09-07T21:23:55.463Z,100304.88
2022-09-07T21:26:21.969Z,100301.16
2022-09-07T21:28:48.827Z,100305.09
2022-09-07T21:31:15.421Z,100304.09
2022-09-07T21:33:42.027Z,100303.84
2022-09-07T21:36:11.330Z,100297.72
2022-09-07T21:38:39.071Z,100301.66
2022-09-07T21:41:10.820Z,100295.22
2022-09-07T21:43:37.591Z,100293.47
2022-09-07T21:46:16.351Z,100288.75
2022-09-07T21:48:43.937Z,100286.09
2022-09-07T21:51:10.377Z,100287.44
2022-09-07T21:53:37.028Z,100283.56
2022-09-07T21:56:09.958Z,100282.53
2022-09-07T21:58:36.583Z,100282.53
2022-09-07T22:01:17.209Z,100284.94
2022-09-07T22:03:45.175Z,100282.06
2022-09-07T22:06:12.501Z,100271.72
2022-09-07T22:08:40.105Z,100274.44
2022-09-07T22:11:09.047Z,100281.25
2022-09-07T22:13:35.986Z,100270.91
2022-09-07T22:16:03.618Z,100263.19
2022-09-07T22:18:31.041Z,100250.91
2022-09-07T22:21:09.752Z,100260.09
2022-09-07T22:23:39.169Z,100252.13
2022-09-07T22:26:06.185Z,100257.88
2022-09-07T22:28:32.798Z,100254.09
2022-09-07T22:31:11.725Z,100253.78
2022-09-07T22:33:39.271Z,100266.69
2022-09-07T22:36:11.441Z,100277.97
2022-09-07T22:38:38.248Z,100275.41
2022-09-07T22:41:13.992Z,100269.94
2022-09-07T22:43:40.810Z,100270.69
2022-09-07T22:46:07.353Z,100265.72
2022-09-07T22:48:33.829Z,100261.34
2022-09-07T22:51:01.006Z,100250.69
2022-09-07T22:53:28.243Z,100259.56
2022-09-07T22:55:55.461Z,100258.50
2022-09-07T22:58:23.722Z,100252.22
2022-09-07T23:00:51.259Z,100255.88
2022-09-07T23:03:18.395Z,100258.34
2022-09-07T23:05:45.082Z,100262.56
2022-09-07T23:09:01.170Z,100248.22
2022-09-07T23:11:28.058Z,100246.00
2022-09-07T23:13:56.481Z,100247.19
2022-09-07T23:16:23.347Z,100252.19
2022-09-07T23:18:50.566Z,100232.97
2022-09-07T23:21:17.431Z,100234.81
2022-09-07T23:23:44.301Z,100239.56
2022-09-07T23:26:10.914Z,100236.03
2022-09-07T23:28:37.286Z,100227.63
2022-09-07T23:31:03.867Z,100231.19
2022-09-07T23:33:30.566Z,100240.41
2022-09-07T23:36:01.730Z,100230.56
2022-09-07T23:38:28.861Z,100229.41
2022-09-07T23:40:57.127Z,100224.22
2022-09-07T23:43:24.700Z,100213.22
2022-09-07T23:45:51.074Z,100212.44
2022-09-07T23:48:17.569Z,100209.13
2022-09-07T23:50:44.975Z,100206.38
2022-09-07T23:53:11.857Z,100200.91
2022-09-07T23:55:38.609Z,100201.84
2022-09-07T23:58:05.761Z,100203.66
